Terminal Aerodrome Forecast
Issued by NWS Lake Charles, LA

Home | Current Version | Previous Version | Text Only | Print | Product List | Glossary On
Versions: 1 2 3 4 5 6 7 8 9 10 11 12
000
FTUS44 KLCH 020500
TAFLCH
TAF
KLCH 020520Z 0206/0306 35007KT P6SM BKN023 BKN060
     FM021500 32004KT P6SM VCSH FEW015 BKN050 OVC200
      TEMPO 0220/0224 5SM TSRA BKN035CB BKN050=

USA.gov is the U.S. government's official web portal to all federal, state and local government web resources and services.